sensor_id;sensor_type;location;lat;lon;timestamp;pressure;altitude;pressure_sealevel;temperature;humidity
58771;BME280;44539;42.962;1.596;2023-03-01T07:09:50;97181.63;;;-1.03;100.00
58771;BME280;44539;42.962;1.596;2023-03-01T07:12:16;97188.84;;;-1.07;100.00
58771;BME280;44539;42.962;1.596;2023-03-01T07:14:43;97186.75;;;-1.01;100.00
58771;BME280;44539;42.962;1.596;2023-03-01T07:17:09;97194.16;;;-0.95;100.00
58771;BME280;44539;42.962;1.596;2023-03-01T07:19:34;97191.53;;;-0.95;100.00
58771;BME280;44539;42.962;1.596;2023-03-01T07:21:59;97194.16;;;-0.95;100.00
58771;BME280;44539;42.962;1.596;2023-03-01T07:24:25;97201.34;;;-0.99;100.00
58771;BME280;44539;42.962;1.596;2023-03-01T07:26:51;97203.63;;;-0.94;100.00
58771;BME280;44539;42.962;1.596;2023-03-01T07:29:17;97198.44;;;-0.82;100.00
58771;BME280;44539;42.962;1.596;2023-03-01T07:31:43;97201.25;;;-0.72;100.00
58771;BME280;44539;42.962;1.596;2023-03-01T07:34:08;97196.56;;;-0.67;100.00
58771;BME280;44539;42.962;1.596;2023-03-01T07:36:35;97197.59;;;-0.69;100.00
58771;BME280;44539;42.962;1.596;2023-03-01T07:39:01;97204.50;;;-0.68;100.00
58771;BME280;44539;42.962;1.596;2023-03-01T07:41:28;97205.34;;;-0.68;100.00
58771;BME280;44539;42.962;1.596;2023-03-01T07:43:54;97210.66;;;-0.56;100.00
58771;BME280;44539;42.962;1.596;2023-03-01T07:46:19;97204.06;;;-0.49;100.00
58771;BME280;44539;42.962;1.596;2023-03-01T07:48:45;97211.47;;;-0.43;100.00
58771;BME280;44539;42.962;1.596;2023-03-01T07:51:10;97210.31;;;-0.39;99.68
58771;BME280;44539;42.962;1.596;2023-03-01T07:53:36;97212.31;;;-0.30;97.44
58771;BME280;44539;42.962;1.596;2023-03-01T07:56:06;97210.41;;;-0.15;98.61
58771;BME280;44539;42.962;1.596;2023-03-01T07:58:37;97215.47;;;-0.01;97.07
58771;BME280;44539;42.962;1.596;2023-03-01T08:01:08;97220.69;;;0.12;95.51
58771;BME280;44539;42.962;1.596;2023-03-01T08:03:34;97217.63;;;0.18;92.71
58771;BME280;44539;42.962;1.596;2023-03-01T08:06:01;97226.09;;;0.22;91.69
58771;BME280;44539;42.962;1.596;2023-03-01T08:08:27;97223.88;;;0.29;91.42
58771;BME280;44539;42.962;1.596;2023-03-01T08:10:56;97225.44;;;0.31;89.06
58771;BME280;44539;42.962;1.596;2023-03-01T08:13:21;97226.16;;;0.33;86.69
58771;BME280;44539;42.962;1.596;2023-03-01T08:15:50;97219.66;;;0.39;88.19
58771;BME280;44539;42.962;1.596;2023-03-01T08:18:17;97214.09;;;0.44;89.41
58771;BME280;44539;42.962;1.596;2023-03-01T08:20:43;97223.06;;;0.52;88.44
58771;BME280;44539;42.962;1.596;2023-03-01T08:23:08;97225.00;;;0.61;87.16
58771;BME280;44539;42.962;1.596;2023-03-01T08:25:34;97224.44;;;0.69;86.99
58771;BME280;44539;42.962;1.596;2023-03-01T08:27:59;97220.31;;;0.78;85.44
58771;BME280;44539;42.962;1.596;2023-03-01T08:30:24;97223.91;;;0.77;81.09
58771;BME280;44539;42.962;1.596;2023-03-01T08:32:50;97214.38;;;0.76;80.51
58771;BME280;44539;42.962;1.596;2023-03-01T08:35:16;97218.44;;;0.80;80.88
58771;BME280;44539;42.962;1.596;2023-03-01T08:37:42;97217.75;;;0.89;80.97
58771;BME280;44539;42.962;1.596;2023-03-01T08:40:08;97223.88;;;1.01;80.88
58771;BME280;44539;42.962;1.596;2023-03-01T08:42:35;97219.00;;;1.08;80.26
58771;BME280;44539;42.962;1.596;2023-03-01T08:45:02;97217.81;;;1.00;77.95
58771;BME280;44539;42.962;1.596;2023-03-01T08:47:27;97225.69;;;1.12;77.63
58771;BME280;44539;42.962;1.596;2023-03-01T08:49:52;97224.72;;;1.13;75.56
58771;BME280;44539;42.962;1.596;2023-03-01T08:52:19;97216.16;;;1.11;73.34
58771;BME280;44539;42.962;1.596;2023-03-01T08:54:44;97215.84;;;1.15;75.18
58771;BME280;44539;42.962;1.596;2023-03-01T08:57:10;97214.59;;;1.08;74.33
58771;BME280;44539;42.962;1.596;2023-03-01T08:59:35;97213.31;;;1.14;75.64
58771;BME280;44539;42.962;1.596;2023-03-01T09:02:03;97212.00;;;1.19;74.38
58771;BME280;44539;42.962;1.596;2023-03-01T09:04:29;97204.06;;;1.32;74.40
58771;BME280;44539;42.962;1.596;2023-03-01T09:06:55;97209.31;;;1.32;73.73
58771;BME280;44539;42.962;1.596;2023-03-01T09:09:20;97211.25;;;1.64;74.62
58771;BME280;44539;42.962;1.596;2023-03-01T09:11:46;97207.44;;;1.57;71.38
58771;BME280;44539;42.962;1.596;2023-03-01T09:14:12;97193.03;;;1.51;71.98
58771;BME280;44539;42.962;1.596;2023-03-01T09:16:38;97193.41;;;1.80;72.27
58771;BME280;44539;42.962;1.596;2023-03-01T09:19:05;97185.28;;;2.06;70.63
58771;BME280;44539;42.962;1.596;2023-03-01T09:21:30;97183.88;;;1.91;69.16
58771;BME280;44539;42.962;1.596;2023-03-01T09:23:56;97183.38;;;2.08;69.47
58771;BME280;44539;42.962;1.596;2023-03-01T09:26:23;97175.78;;;1.94;66.24
58771;BME280;44539;42.962;1.596;2023-03-01T09:28:51;97170.09;;;1.77;65.69
58771;BME280;44539;42.962;1.596;2023-03-01T09:31:19;97169.47;;;1.85;66.09
58771;BME280;44539;42.962;1.596;2023-03-01T09:33:46;97158.06;;;1.63;64.36
58771;BME280;44539;42.962;1.596;2023-03-01T09:36:15;97164.25;;;1.74;66.59
58771;BME280;44539;42.962;1.596;2023-03-01T09:38:40;97160.19;;;1.81;67.15
58771;BME280;44539;42.962;1.596;2023-03-01T09:41:15;97149.47;;;1.95;67.92
58771;BME280;44539;42.962;1.596;2023-03-01T09:46:40;97141.44;;;2.19;64.48
58771;BME280;44539;42.962;1.596;2023-03-01T09:49:13;97131.00;;;2.40;61.87
58771;BME280;44539;42.962;1.596;2023-03-01T09:51:42;97125.53;;;2.43;60.49
58771;BME280;44539;42.962;1.596;2023-03-01T09:54:09;97122.34;;;2.61;59.58
58771;BME280;44539;42.962;1.596;2023-03-01T09:56:46;97116.72;;;2.65;59.95
58771;BME280;44539;42.962;1.596;2023-03-01T09:59:25;97112.41;;;2.43;60.98
58771;BME280;44539;42.962;1.596;2023-03-01T10:01:58;97116.63;;;2.35;60.48
58771;BME280;44539;42.962;1.596;2023-03-01T10:09:36;97111.91;;;2.71;59.28
58771;BME280;44539;42.962;1.596;2023-03-01T10:12:07;97104.75;;;2.73;59.41
58771;BME280;44539;42.962;1.596;2023-03-01T10:14:57;97110.38;;;2.68;58.31
58771;BME280;44539;42.962;1.596;2023-03-01T10:20:46;97095.31;;;2.60;58.17
58771;BME280;44539;42.962;1.596;2023-03-01T10:23:10;97085.13;;;2.67;61.48
58771;BME280;44539;42.962;1.596;2023-03-01T10:28:05;97084.16;;;2.89;58.27
58771;BME280;44539;42.962;1.596;2023-03-01T10:30:38;97079.84;;;3.09;57.43
58771;BME280;44539;42.962;1.596;2023-03-01T10:33:26;97080.44;;;3.13;56.35
58771;BME280;44539;42.962;1.596;2023-03-01T10:35:52;97075.97;;;3.03;57.39
58771;BME280;44539;42.962;1.596;2023-03-01T10:38:19;97076.41;;;3.39;58.64
58771;BME280;44539;42.962;1.596;2023-03-01T10:40:56;97077.47;;;3.27;55.58
58771;BME280;44539;42.962;1.596;2023-03-01T10:43:24;97076.84;;;3.14;56.49
58771;BME280;44539;42.962;1.596;2023-03-01T10:45:50;97077.50;;;3.37;56.21
58771;BME280;44539;42.962;1.596;2023-03-01T10:48:17;97065.00;;;3.50;55.85
58771;BME280;44539;42.962;1.596;2023-03-01T10:50:48;97056.47;;;3.77;57.80
58771;BME280;44539;42.962;1.596;2023-03-01T10:56:08;97053.34;;;4.03;54.88
58771;BME280;44539;42.962;1.596;2023-03-01T10:58:36;97048.38;;;4.00;53.15
58771;BME280;44539;42.962;1.596;2023-03-01T11:03:43;97048.44;;;3.69;54.67
58771;BME280;44539;42.962;1.596;2023-03-01T11:08:42;97033.91;;;3.55;54.15
58771;BME280;44539;42.962;1.596;2023-03-01T11:11:21;97029.81;;;3.92;55.13
58771;BME280;44539;42.962;1.596;2023-03-01T11:14:07;97033.16;;;4.03;54.77
58771;BME280;44539;42.962;1.596;2023-03-01T11:16:39;97035.22;;;4.00;54.19
58771;BME280;44539;42.962;1.596;2023-03-01T11:21:36;97023.75;;;4.30;53.22
58771;BME280;44539;42.962;1.596;2023-03-01T11:24:04;97017.47;;;4.70;55.12
58771;BME280;44539;42.962;1.596;2023-03-01T11:26:34;97011.59;;;4.29;53.38
58771;BME280;44539;42.962;1.596;2023-03-01T11:29:06;97010.59;;;4.11;54.00
58771;BME280;44539;42.962;1.596;2023-03-01T11:31:37;97005.88;;;4.53;53.22
58771;BME280;44539;42.962;1.596;2023-03-01T11:34:13;96999.53;;;4.17;52.75
58771;BME280;44539;42.962;1.596;2023-03-01T11:36:56;96986.13;;;4.29;52.86
58771;BME280;44539;42.962;1.596;2023-03-01T11:39:38;96983.03;;;4.54;52.79
58771;BME280;44539;42.962;1.596;2023-03-01T11:42:17;96977.50;;;5.04;52.27
58771;BME280;44539;42.962;1.596;2023-03-01T11:44:46;96965.34;;;5.48;52.22
58771;BME280;44539;42.962;1.596;2023-03-01T11:47:15;96959.22;;;4.93;50.04
58771;BME280;44539;42.962;1.596;2023-03-01T11:52:36;96953.69;;;5.23;50.04
58771;BME280;44539;42.962;1.596;2023-03-01T11:55:30;96960.38;;;5.18;50.74
58771;BME280;44539;42.962;1.596;2023-03-01T12:17:51;96933.81;;;5.92;49.89
58771;BME280;44539;42.962;1.596;2023-03-01T12:20:34;96923.13;;;6.30;49.90
58771;BME280;44539;42.962;1.596;2023-03-01T12:34:11;96916.00;;;6.04;48.83
58771;BME280;44539;42.962;1.596;2023-03-01T12:36:52;96915.16;;;6.04;49.84
58771;BME280;44539;42.962;1.596;2023-03-01T12:50:17;96889.16;;;5.91;49.72
58771;BME280;44539;42.962;1.596;2023-03-01T12:55:31;96884.13;;;6.76;47.73
58771;BME280;44539;42.962;1.596;2023-03-01T13:09:41;96873.47;;;7.36;46.71
58771;BME280;44539;42.962;1.596;2023-03-01T13:12:49;96860.59;;;7.50;45.43
58771;BME280;44539;42.962;1.596;2023-03-01T13:26:27;96851.09;;;7.14;46.32
58771;BME280;44539;42.962;1.596;2023-03-01T13:28:57;96855.66;;;7.71;45.36
58771;BME280;44539;42.962;1.596;2023-03-01T13:33:52;96856.97;;;8.25;43.44
58771;BME280;44539;42.962;1.596;2023-03-01T13:47:17;96849.81;;;8.58;41.82
58771;BME280;44539;42.962;1.596;2023-03-01T13:49:56;96856.16;;;8.08;42.90
58771;BME280;44539;42.962;1.596;2023-03-01T13:55:45;96833.81;;;9.45;42.26
58771;BME280;44539;42.962;1.596;2023-03-01T13:58:26;96839.34;;;9.04;43.74
58771;BME280;44539;42.962;1.596;2023-03-01T14:01:01;96844.81;;;8.71;43.24
58771;BME280;44539;42.962;1.596;2023-03-01T14:03:28;96844.94;;;8.78;42.91
58771;BME280;44539;42.962;1.596;2023-03-01T14:08:35;96830.00;;;9.48;41.41
58771;BME280;44539;42.962;1.596;2023-03-01T14:19:26;96833.22;;;10.04;39.25
58771;BME280;44539;42.962;1.596;2023-03-01T14:22:22;96835.78;;;10.65;40.45
58771;BME280;44539;42.962;1.596;2023-03-01T14:24:51;96841.44;;;10.62;39.42
58771;BME280;44539;42.962;1.596;2023-03-01T14:27:17;96822.59;;;10.87;39.36
58771;BME280;44539;42.962;1.596;2023-03-01T14:29:44;96828.41;;;9.85;39.44
58771;BME280;44539;42.962;1.596;2023-03-01T14:32:28;96828.78;;;9.58;40.73
58771;BME280;44539;42.962;1.596;2023-03-01T14:34:54;96826.59;;;10.97;41.34
58771;BME280;44539;42.962;1.596;2023-03-01T14:37:34;96832.84;;;10.45;39.05
58771;BME280;44539;42.962;1.596;2023-03-01T14:40:01;96826.78;;;11.32;40.89
58771;BME280;44539;42.962;1.596;2023-03-01T14:42:34;96834.94;;;11.31;40.35
58771;BME280;44539;42.962;1.596;2023-03-01T14:45:00;96840.81;;;10.60;40.02
58771;BME280;44539;42.962;1.596;2023-03-01T14:47:29;96834.19;;;9.11;41.44
58771;BME280;44539;42.962;1.596;2023-03-01T14:52:37;96839.97;;;9.14;43.53
58771;BME280;44539;42.962;1.596;2023-03-01T14:55:07;96833.59;;;9.01;44.40
58771;BME280;44539;42.962;1.596;2023-03-01T14:57:43;96836.63;;;9.90;43.50
58771;BME280;44539;42.962;1.596;2023-03-01T15:00:15;96838.31;;;11.03;39.93
58771;BME280;44539;42.962;1.596;2023-03-01T15:24:49;96845.88;;;7.31;44.85
58771;BME280;44539;42.962;1.596;2023-03-01T15:27:17;96853.34;;;7.52;46.75
58771;BME280;44539;42.962;1.596;2023-03-01T15:30:00;96847.63;;;7.14;46.25
58771;BME280;44539;42.962;1.596;2023-03-01T15:32:35;96848.13;;;7.09;48.57
58771;BME280;44539;42.962;1.596;2023-03-01T15:35:39;96852.41;;;7.02;46.83
58771;BME280;44539;42.962;1.596;2023-03-01T15:41:31;96864.50;;;6.18;50.14
58771;BME280;44539;42.962;1.596;2023-03-01T15:43:58;96858.22;;;6.11;48.59
58771;BME280;44539;42.962;1.596;2023-03-01T15:46:33;96857.88;;;6.14;49.64
58771;BME280;44539;42.962;1.596;2023-03-01T15:49:03;96862.19;;;6.15;49.49
58771;BME280;44539;42.962;1.596;2023-03-01T15:51:33;96855.97;;;6.24;50.70
58771;BME280;44539;42.962;1.596;2023-03-01T15:54:01;96857.22;;;5.94;49.23
58771;BME280;44539;42.962;1.596;2023-03-01T15:56:27;96856.94;;;5.97;49.87
58771;BME280;44539;42.962;1.596;2023-03-01T15:58:57;96860.09;;;6.01;49.48
58771;BME280;44539;42.962;1.596;2023-03-01T16:01:22;96855.44;;;5.95;49.27
58771;BME280;44539;42.962;1.596;2023-03-01T16:03:48;96861.09;;;6.00;49.12
58771;BME280;44539;42.962;1.596;2023-03-01T16:06:13;96861.03;;;5.56;49.59
58771;BME280;44539;42.962;1.596;2023-03-01T16:08:38;96854.63;;;5.40;50.58
58771;BME280;44539;42.962;1.596;2023-03-01T16:11:11;96859.69;;;5.34;50.97
58771;BME280;44539;42.962;1.596;2023-03-01T16:13:38;96866.22;;;5.29;50.52
58771;BME280;44539;42.962;1.596;2023-03-01T16:16:04;96865.03;;;5.14;50.48
58771;BME280;44539;42.962;1.596;2023-03-01T16:18:30;96869.31;;;5.25;51.05
58771;BME280;44539;42.962;1.596;2023-03-01T16:20:55;96864.19;;;5.23;52.10
58771;BME280;44539;42.962;1.596;2023-03-01T16:23:20;96871.97;;;5.15;51.77
58771;BME280;44539;42.962;1.596;2023-03-01T16:25:50;96871.88;;;4.89;52.16
58771;BME280;44539;42.962;1.596;2023-03-01T16:28:15;96875.44;;;5.16;52.12
58771;BME280;44539;42.962;1.596;2023-03-01T16:30:46;96881.81;;;4.95;51.64
58771;BME280;44539;42.962;1.596;2023-03-01T16:33:12;96884.50;;;5.03;52.40
58771;BME280;44539;42.962;1.596;2023-03-01T16:35:39;96883.28;;;5.25;52.79
58771;BME280;44539;42.962;1.596;2023-03-01T16:38:05;96884.88;;;5.36;51.72
58771;BME280;44539;42.962;1.596;2023-03-01T16:40:30;96882.47;;;5.43;51.43
58771;BME280;44539;42.962;1.596;2023-03-01T16:42:57;96889.00;;;5.21;53.65
58771;BME280;44539;42.962;1.596;2023-03-01T16:45:26;96887.63;;;5.17;52.75
58771;BME280;44539;42.962;1.596;2023-03-01T16:47:52;96896.59;;;5.24;52.03
58771;BME280;44539;42.962;1.596;2023-03-01T16:50:18;96903.09;;;5.02;51.88
58771;BME280;44539;42.962;1.596;2023-03-01T16:52:43;96906.19;;;4.97;52.52
58771;BME280;44539;42.962;1.596;2023-03-01T16:55:09;96909.78;;;4.96;53.08
58771;BME280;44539;42.962;1.596;2023-03-01T16:57:36;96916.53;;;4.99;51.82
58771;BME280;44539;42.962;1.596;2023-03-01T17:00:06;96914.88;;;4.98;52.26
58771;BME280;44539;42.962;1.596;2023-03-01T17:02:34;96908.25;;;4.94;52.08
58771;BME280;44539;42.962;1.596;2023-03-01T17:05:01;96914.13;;;4.78;52.62
58771;BME280;44539;42.962;1.596;2023-03-01T17:07:28;96921.44;;;4.84;53.55
58771;BME280;44539;42.962;1.596;2023-03-01T17:09:54;96932.13;;;4.82;52.71
58771;BME280;44539;42.962;1.596;2023-03-01T17:12:19;96929.41;;;4.74;52.95
58771;BME280;44539;42.962;1.596;2023-03-01T17:14:44;96937.44;;;4.73;52.63
58771;BME280;44539;42.962;1.596;2023-03-01T17:17:10;96945.50;;;4.61;52.21
58771;BME280;44539;42.962;1.596;2023-03-01T17:19:37;96945.25;;;4.45;53.45
58771;BME280;44539;42.962;1.596;2023-03-01T17:22:09;96948.44;;;4.39;53.08
